Time;durP1;ratioP1;P1;durP2;ratioP2;P2;SDS_P1;SDS_P2;PMS_P1;PMS_P2;Temp;Humidity;BMP_temperature;BMP_pressure;BME280_temperature;BME280_humidity;BME280_pressure;Samples;Min_cycle;Max_cycle;Signal;HPM_P1;HPM_P2
2024/04/19 00:01:09;;;;;;;7.13;4.53;;;4.60;99.90;;;;;;5291346;27;20001;-66
2024/04/19 00:03:35;;;;;;;6.85;4.55;;;4.60;99.90;;;;;;5288380;26;19998;-65
2024/04/19 00:06:02;;;;;;;12.77;5.25;;;4.60;99.90;;;;;;5297846;26;19998;-65
2024/04/19 00:08:28;;;;;;;8.32;5.53;;;4.60;99.90;;;;;;5279633;26;20014;-65
2024/04/19 00:10:55;;;;;;;8.63;5.50;;;4.60;99.90;;;;;;5294177;27;19997;-65
2024/04/19 00:13:25;;;;;;;9.07;5.47;;;4.60;99.90;;;;;;5293092;27;20002;-65
2024/04/19 00:15:51;;;;;;;7.90;5.20;;;4.60;99.90;;;;;;5298033;27;20381;-65
2024/04/19 00:18:17;;;;;;;8.07;5.85;;;4.60;99.90;;;;;;5277811;27;20001;-65
2024/04/19 00:20:44;;;;;;;7.68;5.20;;;4.60;99.90;;;;;;5292583;27;20017;-65
2024/04/19 00:23:09;;;;;;;;;;;4.60;99.90;;;;;;5289008;27;20447;-65
2024/04/19 00:25:36;;;;;;;9.25;5.85;;;4.50;99.90;;;;;;5289149;27;19926;-65
2024/04/19 00:28:02;;;;;;;8.13;5.10;;;4.50;99.90;;;;;;5304666;27;20002;-66
2024/04/19 00:30:28;;;;;;;8.48;5.50;;;4.40;99.90;;;;;;5284906;27;20025;-65
2024/04/19 00:32:54;;;;;;;8.80;5.53;;;4.40;99.90;;;;;;5289521;27;20013;-65
2024/04/19 00:35:20;;;;;;;11.70;6.07;;;4.30;99.90;;;;;;5278698;27;20002;-65
2024/04/19 00:37:45;;;;;;;8.23;5.28;;;4.20;99.90;;;;;;5293160;27;20017;-65
2024/04/19 00:40:11;;;;;;;8.23;5.60;;;4.20;99.90;;;;;;5290936;26;20080;-65
2024/04/19 00:42:37;;;;;;;9.47;6.60;;;4.20;99.90;;;;;;5292839;27;20002;-65
2024/04/19 00:45:28;;;;;;;8.13;5.78;;;4.20;99.90;;;;;;5291303;27;20009;-65
2024/04/19 00:47:54;;;;;;;7.93;5.68;;;4.30;99.90;;;;;;5291977;27;20002;-65
2024/04/19 00:50:20;;;;;;;14.45;6.35;;;4.30;99.90;;;;;;5301814;26;20006;-65
2024/04/19 00:52:46;;;;;;;9.47;5.67;;;4.30;99.90;;;;;;5294700;27;19998;-65
2024/04/19 00:55:11;;;;;;;9.50;6.03;;;4.30;99.90;;;;;;5296125;26;20002;-65
2024/04/19 00:57:37;;;;;;;9.87;7.03;;;4.30;99.90;;;;;;5276390;26;20063;-66
2024/04/19 01:00:03;;;;;;;8.90;5.77;;;4.30;99.90;;;;;;5291437;27;20412;-65
2024/04/19 01:02:29;;;;;;;9.60;5.65;;;4.40;99.90;;;;;;5293128;27;20536;-65
2024/04/19 01:04:55;;;;;;;9.77;5.38;;;4.30;99.90;;;;;;5294366;27;20018;-65
2024/04/19 01:07:21;;;;;;;13.75;6.65;;;4.30;99.90;;;;;;5297174;27;20325;-65
2024/04/19 01:09:49;;;;;;;11.00;6.93;;;4.20;99.90;;;;;;5279857;27;20042;-65
2024/04/19 01:12:15;;;;;;;10.43;6.55;;;4.20;99.90;;;;;;5293234;27;20012;-65
2024/04/19 01:14:40;;;;;;;10.05;6.50;;;4.20;99.90;;;;;;5300347;26;20009;-65
2024/04/19 01:17:06;;;;;;;9.85;6.88;;;4.20;99.90;;;;;;5296403;27;20741;-66
2024/04/19 01:19:32;;;;;;;11.20;6.47;;;4.20;99.90;;;;;;5303497;27;20097;-65
2024/04/19 01:21:58;;;;;;;12.75;6.38;;;4.10;99.90;;;;;;5292117;26;20013;-65
2024/04/19 01:24:44;;;;;;;14.00;6.83;;;4.00;99.90;;;;;;5290345;27;20005;-65
2024/04/19 01:27:10;;;;;;;10.27;6.50;;;4.00;99.90;;;;;;5290524;27;20284;-65
2024/04/19 01:29:36;;;;;;;16.08;7.03;;;4.00;99.90;;;;;;5276972;27;20933;-65
2024/04/19 01:32:03;;;;;;;10.13;6.65;;;3.90;99.90;;;;;;5288039;27;20014;-66
2024/04/19 01:34:29;;;;;;;13.90;7.00;;;3.90;99.90;;;;;;5295236;27;20006;-67
2024/04/19 01:36:55;;;;;;;10.02;6.65;;;3.80;99.90;;;;;;5292355;27;20419;-65
2024/04/19 01:39:21;;;;;;;10.77;6.20;;;3.80;99.90;;;;;;5292202;26;20075;-65
2024/04/19 01:41:46;;;;;;;9.50;6.10;;;3.70;99.90;;;;;;5290011;27;20330;-65
2024/04/19 01:44:13;;;;;;;11.77;6.90;;;;;;;;;;5304498;27;20006;-65
2024/04/19 01:46:39;;;;;;;7.90;5.20;;;3.60;99.90;;;;;;5288217;26;20009;-65
2024/04/19 01:49:04;;;;;;;16.95;6.45;;;3.60;99.90;;;;;;5286710;27;19998;-65
2024/04/19 01:51:30;;;;;;;10.50;6.30;;;3.50;99.90;;;;;;5292546;26;20014;-65
2024/04/19 01:53:56;;;;;;;9.40;6.27;;;3.60;99.90;;;;;;5320220;26;20080;-65
2024/04/19 01:56:21;;;;;;;12.30;7.20;;;3.50;99.90;;;;;;5285942;27;20013;-65
2024/04/19 01:58:47;;;;;;;12.77;7.00;;;3.40;99.90;;;;;;5287062;27;20539;-65
2024/04/19 02:01:13;;;;;;;12.47;6.90;;;3.40;99.90;;;;;;5307786;26;20010;-65
2024/04/19 02:03:39;;;;;;;12.17;5.97;;;3.40;99.90;;;;;;5295755;26;20079;-65
2024/04/19 02:06:08;;;;;;;15.60;6.53;;;3.20;99.90;;;;;;5284706;26;20333;-65
2024/04/19 02:08:34;;;;;;;12.07;6.53;;;3.30;99.90;;;;;;5287630;27;20006;-65
2024/04/19 02:11:03;;;;;;;12.37;7.00;;;3.30;99.90;;;;;;5293474;26;20020;-65
2024/04/19 02:13:29;;;;;;;11.13;5.72;;;3.30;99.90;;;;;;5289108;26;20010;-65
2024/04/19 02:15:54;;;;;;;10.10;6.13;;;3.20;99.90;;;;;;5286812;27;20056;-65
2024/04/19 02:18:20;;;;;;;10.77;6.57;;;3.10;99.90;;;;;;5279554;26;20582;-65
2024/04/19 02:20:46;;;;;;;10.33;6.13;;;3.10;99.90;;;;;;5287851;26;20562;-65
2024/04/19 02:23:11;;;;;;;11.97;6.23;;;3.10;99.90;;;;;;5299122;26;20028;-65
2024/04/19 02:25:37;;;;;;;24.17;6.43;;;3.10;99.90;;;;;;5295668;27;19994;-65
2024/04/19 02:30:55;;;;;;;13.45;7.57;;;3.00;99.90;;;;;;5296728;27;20077;-65
2024/04/19 02:33:21;;;;;;;13.23;6.07;;;3.00;99.90;;;;;;5297465;27;19994;-65
2024/04/19 02:35:47;;;;;;;11.00;6.57;;;2.90;99.90;;;;;;5290594;27;20038;-66
2024/04/19 02:38:12;;;;;;;9.80;6.17;;;3.00;99.90;;;;;;5290122;26;19994;-66
2024/04/19 02:40:38;;;;;;;10.30;6.73;;;2.90;99.90;;;;;;5292454;26;20021;-65
2024/04/19 02:43:04;;;;;;;12.77;7.10;;;2.90;99.90;;;;;;5291465;27;20076;-66
2024/04/19 02:45:29;;;;;;;11.35;6.47;;;3.00;99.90;;;;;;5290597;26;20021;-65
2024/04/19 02:47:55;;;;;;;9.40;6.37;;;3.00;99.90;;;;;;5303831;26;20001;-64
2024/04/19 02:50:21;;;;;;;10.38;6.63;;;2.90;99.90;;;;;;5305334;27;20022;-65
2024/04/19 02:52:47;;;;;;;13.00;6.80;;;2.90;99.90;;;;;;5295676;26;20009;-65
2024/04/19 02:55:12;;;;;;;12.23;6.90;;;2.90;99.90;;;;;;5294222;27;20344;-65
2024/04/19 02:57:38;;;;;;;11.13;6.20;;;2.90;99.90;;;;;;5275817;26;20006;-65
2024/04/19 03:00:04;;;;;;;13.43;8.07;;;2.80;99.90;;;;;;5292231;27;20448;-65
2024/04/19 03:02:29;;;;;;;10.70;6.65;;;2.80;99.90;;;;;;5295119;27;20002;-65
2024/04/19 03:04:55;;;;;;;9.70;6.00;;;2.90;99.90;;;;;;5294696;27;20005;-65
2024/04/19 03:07:21;;;;;;;11.73;6.77;;;2.80;99.90;;;;;;5305838;27;20432;-65
2024/04/19 03:09:47;;;;;;;11.73;6.22;;;2.80;99.90;;;;;;5305698;27;20002;-65
2024/04/19 03:12:12;;;;;;;9.10;5.82;;;2.70;99.90;;;;;;5290338;26;20075;-65
2024/04/19 03:14:38;;;;;;;11.70;7.03;;;2.70;99.90;;;;;;5305462;27;20016;-66
2024/04/19 03:17:04;;;;;;;15.03;6.57;;;2.60;99.90;;;;;;5292012;26;20416;-65
2024/04/19 03:19:30;;;;;;;12.10;6.68;;;2.60;99.90;;;;;;5296301;27;20010;-66
2024/04/19 03:21:55;;;;;;;11.63;6.20;;;2.60;99.90;;;;;;5291477;26;19998;-65
2024/04/19 03:24:21;;;;;;;9.17;5.93;;;2.50;99.90;;;;;;5288935;26;20002;-65
2024/04/19 03:26:47;;;;;;;10.03;6.03;;;2.50;99.90;;;;;;5283382;27;20006;-65
2024/04/19 03:29:12;;;;;;;11.75;6.40;;;2.50;99.90;;;;;;5302403;26;20001;-65
2024/04/19 03:31:38;;;;;;;14.50;6.87;;;2.40;99.90;;;;;;5289230;26;20438;-65
2024/04/19 03:34:03;;;;;;;8.97;6.03;;;2.40;99.90;;;;;;5289965;26;20002;-66
2024/04/19 03:36:29;;;;;;;15.03;7.50;;;2.50;99.90;;;;;;5290450;26;20352;-66
2024/04/19 03:38:54;;;;;;;9.43;6.47;;;2.50;99.90;;;;;;5293409;27;20095;-65
2024/04/19 03:41:20;;;;;;;10.87;6.43;;;2.50;99.90;;;;;;5301252;26;20228;-66
2024/04/19 03:46:35;;;;;;;13.57;6.53;;;2.40;99.90;;;;;;5306340;26;20014;-65
2024/04/19 03:49:00;;;;;;;13.67;7.10;;;2.40;99.90;;;;;;5290773;26;20046;-65
2024/04/19 03:51:26;;;;;;;12.27;6.70;;;2.40;99.90;;;;;;5293077;26;20008;-65
2024/04/19 03:53:51;;;;;;;10.77;6.37;;;2.30;99.90;;;;;;5294804;26;20546;-66
2024/04/19 03:56:17;;;;;;;12.30;7.40;;;2.40;99.90;;;;;;5298950;27;20001;-66
2024/04/19 03:58:47;;;;;;;9.60;6.67;;;2.30;99.90;;;;;;5287293;26;20009;-65
2024/04/19 04:01:12;;;;;;;11.07;6.60;;;2.30;99.90;;;;;;5315703;26;20465;-65
2024/04/19 04:03:38;;;;;;;11.17;7.30;;;2.30;99.90;;;;;;5289616;26;20042;-65
2024/04/19 04:06:04;;;;;;;11.90;7.22;;;2.20;99.90;;;;;;5302938;26;20022;-65
2024/04/19 04:08:30;;;;;;;12.60;7.22;;;2.20;99.90;;;;;;5295321;27;20002;-64
2024/04/19 04:11:00;;;;;;;15.85;7.30;;;2.20;99.90;;;;;;5296088;26;20356;-65
2024/04/19 04:13:29;;;;;;;12.65;7.95;;;2.20;99.90;;;;;;5294487;27;20373;-66
2024/04/19 04:15:54;;;;;;;11.68;7.20;;;2.20;99.90;;;;;;5284856;26;20013;-65
2024/04/19 04:18:20;;;;;;;13.83;7.70;;;2.30;99.90;;;;;;5294505;26;20371;-65
2024/04/19 04:20:45;;;;;;;12.37;7.20;;;2.30;99.90;;;;;;5321735;26;20042;-64
2024/04/19 04:23:11;;;;;;;13.20;7.37;;;2.30;99.90;;;;;;5291602;26;20268;-65
2024/04/19 04:25:37;;;;;;;13.57;7.90;;;2.30;99.90;;;;;;5294549;26;20009;-65
2024/04/19 04:28:03;;;;;;;11.77;6.63;;;2.30;99.90;;;;;;5288006;27;20006;-66
2024/04/19 04:30:29;;;;;;;9.65;6.47;;;2.20;99.90;;;;;;5303614;26;19998;-66
2024/04/19 04:32:54;;;;;;;13.17;6.93;;;2.20;99.90;;;;;;5304317;26;20002;-66
2024/04/19 04:35:20;;;;;;;11.87;7.13;;;2.20;99.90;;;;;;5303380;26;20620;-65
2024/04/19 04:37:46;;;;;;;13.20;6.93;;;2.20;99.90;;;;;;5296380;26;20228;-64
2024/04/19 04:40:11;;;;;;;15.40;7.37;;;2.10;99.90;;;;;;5301773;26;20009;-65
2024/04/19 04:42:37;;;;;;;13.80;7.93;;;2.10;99.90;;;;;;5295000;26;20597;-66
2024/04/19 04:45:03;;;;;;;12.23;7.70;;;2.20;99.90;;;;;;5296410;26;20006;-64
2024/04/19 04:47:29;;;;;;;14.68;7.88;;;2.10;99.90;;;;;;5289766;27;20079;-65
2024/04/19 04:49:54;;;;;;;17.40;7.10;;;2.20;99.90;;;;;;5293613;26;20444;-66
2024/04/19 04:52:20;;;;;;;15.20;7.75;;;2.30;99.90;;;;;;5297488;27;20252;-65
2024/04/19 04:54:46;;;;;;;15.30;8.23;;;2.10;99.90;;;;;;5293209;27;21022;-66
2024/04/19 04:57:11;;;;;;;15.10;7.70;;;2.10;99.90;;;;;;5305970;26;20034;-64
2024/04/19 04:59:37;;;;;;;13.37;7.37;;;2.10;99.90;;;;;;5300276;27;20013;-66
2024/04/19 05:02:03;;;;;;;14.55;7.35;;;2.20;99.90;;;;;;5302380;26;20347;-65
2024/04/19 05:04:29;;;;;;;13.07;7.50;;;2.20;99.90;;;;;;5289600;26;20003;-65
2024/04/19 05:06:55;;;;;;;13.10;7.60;;;2.20;99.90;;;;;;5301545;26;20648;-65
2024/04/19 05:09:20;;;;;;;11.53;7.00;;;2.20;99.90;;;;;;5300338;26;20030;-65
2024/04/19 05:11:46;;;;;;;16.00;7.70;;;2.10;99.90;;;;;;5298439;27;19998;-65
2024/04/19 05:14:12;;;;;;;13.55;8.52;;;2.20;99.90;;;;;;5311330;26;20264;-65
2024/04/19 05:16:40;;;;;;;14.97;8.57;;;2.20;99.90;;;;;;5292562;27;20037;-65
2024/04/19 05:19:05;;;;;;;13.20;8.15;;;2.20;99.90;;;;;;5300280;27;20236;-66
2024/04/19 05:21:31;;;;;;;19.08;8.07;;;2.20;99.90;;;;;;5303602;27;20671;-66
2024/04/19 05:23:57;;;;;;;14.50;8.13;;;2.20;99.90;;;;;;5296944;26;20006;-65
2024/04/19 05:26:22;;;;;;;14.23;8.07;;;2.20;99.90;;;;;;5287860;26;20006;-65
2024/04/19 05:28:48;;;;;;;15.07;8.50;;;2.30;99.90;;;;;;5296059;26;20622;-66
2024/04/19 05:31:13;;;;;;;12.97;7.63;;;2.40;99.90;;;;;;5289703;27;20002;-65
2024/04/19 05:33:39;;;;;;;13.97;7.90;;;2.40;99.90;;;;;;5287672;26;20080;-66
2024/04/19 05:36:05;;;;;;;12.13;7.40;;;2.60;99.90;;;;;;5283749;26;20817;-65
2024/04/19 05:38:31;;;;;;;13.00;7.47;;;2.70;99.90;;;;;;5292063;27;20348;-65
2024/04/19 05:40:57;;;;;;;17.33;8.40;;;2.80;99.90;;;;;;5290104;26;20013;-63
2024/04/19 05:43:22;;;;;;;12.10;7.55;;;3.10;99.90;;;;;;5284015;27;20283;-66
2024/04/19 05:45:48;;;;;;;16.27;8.15;;;3.20;99.90;;;;;;5298058;27;20005;-65
2024/04/19 05:48:14;;;;;;;15.97;8.37;;;3.20;99.90;;;;;;5290241;27;20020;-66
2024/04/19 05:50:40;;;;;;;12.43;7.75;;;3.80;99.90;;;;;;5287734;26;20241;-65
2024/04/19 05:53:05;;;;;;;13.53;7.83;;;3.80;99.90;;;;;;5287892;26;20081;-66
2024/04/19 05:55:31;;;;;;;13.17;7.03;;;3.40;99.90;;;;;;5298985;27;20276;-65
2024/04/19 05:57:57;;;;;;;18.63;7.80;;;3.20;99.90;;;;;;5306627;26;19998;-65
2024/04/19 06:00:23;;;;;;;12.57;7.00;;;3.40;99.90;;;;;;5306597;26;20496;-65
2024/04/19 06:02:48;;;;;;;14.40;8.47;;;3.90;99.90;;;;;;5301894;27;19993;-65
2024/04/19 06:05:14;;;;;;;12.63;7.47;;;3.90;99.90;;;;;;5302969;26;20759;-66
2024/04/19 06:07:40;;;;;;;14.13;8.10;;;4.00;99.90;;;;;;5303873;26;20225;-66
2024/04/19 06:10:06;;;;;;;19.02;8.07;;;4.20;99.90;;;;;;5304792;26;20005;-65
2024/04/19 06:12:32;;;;;;;13.43;7.93;;;4.60;99.90;;;;;;5327628;26;20002;-66
2024/04/19 06:14:58;;;;;;;12.77;7.15;;;4.90;99.90;;;;;;5305102;26;19999;-65
2024/04/19 06:17:23;;;;;;;14.67;8.33;;;5.30;99.90;;;;;;5302488;27;20342;-65
2024/04/19 06:19:49;;;;;;;11.73;6.93;;;6.00;99.90;;;;;;5298123;26;20228;-66
2024/04/19 06:22:15;;;;;;;13.47;7.13;;;6.90;99.90;;;;;;5292547;26;19998;-65
2024/04/19 06:24:40;;;;;;;14.87;8.13;;;6.40;99.90;;;;;;5298913;26;20039;-66
2024/04/19 06:27:06;;;;;;;12.53;7.50;;;5.50;99.90;;;;;;5296154;26;20590;-66
2024/04/19 06:29:32;;;;;;;12.87;8.27;;;5.40;99.90;;;;;;5292937;26;20002;-66
2024/04/19 06:31:57;;;;;;;16.17;8.13;;;5.20;99.90;;;;;;5298076;26;20079;-66
2024/04/19 06:34:23;;;;;;;13.37;8.60;;;5.00;99.90;;;;;;5290686;26;20005;-66
2024/04/19 06:36:48;;;;;;;13.70;9.07;;;5.10;99.90;;;;;;5296691;26;20002;-66
2024/04/19 06:39:22;;;;;;;13.20;8.05;;;5.30;99.90;;;;;;5307561;26;20009;-66
2024/04/19 06:41:47;;;;;;;18.35;9.13;;;5.30;99.90;;;;;;5305184;26;20002;-65
2024/04/19 06:44:13;;;;;;;14.73;8.30;;;5.50;99.90;;;;;;5297009;26;20113;-66
2024/04/19 06:46:39;;;;;;;12.80;7.90;;;5.50;99.90;;;;;;5304322;26;20493;-66
2024/04/19 06:49:05;;;;;;;12.03;8.30;;;5.50;99.90;;;;;;5303011;26;20016;-66
2024/04/19 06:51:30;;;;;;;13.20;8.50;;;6.30;99.90;;;;;;5287976;27;20080;-66
2024/04/19 06:53:56;;;;;;;16.43;8.50;;;6.30;99.90;;;;;;5291029;26;20002;-65
2024/04/19 06:56:22;;;;;;;14.17;8.30;;;6.20;99.90;;;;;;5296644;27;20088;-66
2024/04/19 06:58:49;;;;;;;15.48;9.25;;;6.20;99.90;;;;;;5278953;26;20002;-66
2024/04/19 07:01:15;;;;;;;17.58;8.90;;;6.50;99.90;;;;;;5302014;26;20076;-66
2024/04/19 07:03:41;;;;;;;16.50;9.00;;;6.90;99.90;;;;;;5298143;27;20013;-66
2024/04/19 07:06:10;;;;;;;15.38;8.90;;;7.20;99.90;;;;;;5327804;26;20444;-66
2024/04/19 07:08:36;;;;;;;14.85;8.18;;;8.30;99.90;;;;;;5313074;26;20429;-66
2024/04/19 07:11:02;;;;;;;19.20;9.05;;;9.00;96.60;;;;;;5331016;26;20017;-66
2024/04/19 07:13:28;;;;;;;18.52;9.23;;;9.10;95.60;;;;;;5302426;26;20016;-66
2024/04/19 07:15:54;;;;;;;12.95;8.18;;;8.50;97.30;;;;;;5304397;26;20327;-66
2024/04/19 07:18:22;;;;;;;13.33;8.60;;;10.10;93.60;;;;;;5305843;26;20012;-66
2024/04/19 07:20:48;;;;;;;16.67;8.68;;;13.00;84.90;;;;;;5303546;26;19994;-67
2024/04/19 07:23:14;;;;;;;13.35;8.52;;;15.00;76.10;;;;;;5305869;27;19997;-67
2024/04/19 07:25:40;;;;;;;18.13;10.23;;;16.10;69.90;;;;;;5298540;26;20017;-67
2024/04/19 07:28:05;;;;;;;18.20;9.53;;;15.80;68.90;;;;;;5298311;27;20002;-66
2024/04/19 07:30:31;;;;;;;15.50;10.67;;;14.80;70.90;;;;;;5298351;26;20009;-67
2024/04/19 07:32:57;;;;;;;15.60;9.63;;;12.10;78.10;;;;;;5291199;26;20438;-66
2024/04/19 07:35:23;;;;;;;13.57;8.63;;;12.80;78.60;;;;;;5291453;26;20445;-67
2024/04/19 07:37:48;;;;;;;12.73;8.00;;;11.10;81.60;;;;;;5292181;26;20006;-67
2024/04/19 07:40:14;;;;;;;15.67;8.20;;;9.90;86.70;;;;;;5293814;27;20017;-66
2024/04/19 07:42:40;;;;;;;13.25;5.75;;;9.60;90.60;;;;;;5299304;27;19997;-66
2024/04/19 07:45:07;;;;;;;10.10;5.97;;;9.80;91.20;;;;;;5290989;26;20012;-66
2024/04/19 07:47:33;;;;;;;6.85;5.40;;;10.10;90.10;;;;;;5290692;27;20013;-66
2024/04/19 07:49:59;;;;;;;6.50;4.68;;;10.50;88.00;;;;;;5291413;27;20012;-65
2024/04/19 07:52:25;;;;;;;10.97;6.43;;;10.60;86.20;;;;;;5293737;27;20001;-67
2024/04/19 07:54:51;;;;;;;9.85;5.60;;;10.70;89.40;;;;;;5296810;27;20259;-66
2024/04/19 07:57:17;;;;;;;9.07;5.00;;;10.80;87.40;;;;;;5308241;26;20026;-66
2024/04/19 07:59:43;;;;;;;7.60;4.20;;;10.80;83.40;;;;;;5295998;26;20020;-66
2024/04/19 08:02:08;;;;;;;6.73;4.47;;;11.40;84.50;;;;;;5319003;26;20335;-66
2024/04/19 08:04:34;;;;;;;7.70;4.87;;;12.20;80.60;;;;;;5294060;26;20068;-64
2024/04/19 08:06:59;;;;;;;6.23;5.07;;;12.80;78.60;;;;;;5303341;27;20365;-66
2024/04/19 08:09:27;;;;;;;7.27;4.50;;;13.90;78.40;;;;;;5293380;27;20073;-66
2024/04/19 08:11:52;;;;;;;7.05;4.90;;;14.40;74.40;;;;;;5297727;26;20079;-65
2024/04/19 08:14:19;;;;;;;7.80;4.70;;;16.00;70.20;;;;;;5295317;26;20010;-67
2024/04/19 08:16:45;;;;;;;;;;;14.90;71.40;;;;;;5294342;27;20424;-65
2024/04/19 08:19:10;;;;;;;8.90;5.43;;;13.80;73.50;;;;;;5282912;27;19927;-66
2024/04/19 08:21:36;;;;;;;8.87;5.30;;;13.70;74.80;;;;;;5304084;26;20561;-64
2024/04/19 08:24:03;;;;;;;7.33;5.30;;;14.30;73.60;;;;;;5299854;26;20029;-67
2024/04/19 08:26:28;;;;;;;;;;;15.30;72.80;;;;;;5300550;26;20286;-67
2024/04/19 08:28:54;;;;;;;6.10;5.03;;;15.00;72.00;;;;;;5306683;26;19926;-66
2024/04/19 08:31:19;;;;;;;8.13;5.60;;;15.10;71.30;;;;;;5302050;27;20407;-66
2024/04/19 08:33:45;;;;;;;6.10;4.60;;;16.30;70.10;;;;;;5303335;26;20010;-66
2024/04/19 08:36:11;;;;;;;7.15;5.32;;;16.80;68.00;;;;;;5305707;26;20005;-67
2024/04/19 08:38:36;;;;;;;9.23;5.43;;;17.10;66.90;;;;;;5303859;26;20364;-67
2024/04/19 08:41:03;;;;;;;9.37;4.77;;;16.60;66.20;;;;;;5304698;26;20006;-67
2024/04/19 08:43:32;;;;;;;;;;;15.50;67.60;;;;;;5305125;26;20013;-67
2024/04/19 08:46:00;;;;;;;5.70;4.78;;;15.50;67.70;;;;;;5298800;26;19942;-67
2024/04/19 08:48:27;;;;;;;7.45;4.57;;;15.20;68.90;;;;;;5297942;27;20006;-67
2024/04/19 08:50:57;;;;;;;5.65;4.18;;;16.10;69.90;;;;;;5303496;26;20021;-67
2024/04/19 08:53:24;;;;;;;6.07;4.53;;;16.60;66.90;;;;;;5303479;26;20022;-67
2024/04/19 08:55:50;;;;;;;4.80;4.10;;;16.40;61.60;;;;;;5306638;26;20005;-67
2024/04/19 08:58:16;;;;;;;;;;;16.30;64.30;;;;;;5302046;26;20016;-67
2024/04/19 09:00:42;;;;;;;9.57;5.00;;;16.80;62.10;;;;;;5298274;27;19934;-67
2024/04/19 09:03:08;;;;;;;5.73;4.73;;;15.80;61.60;;;;;;5301476;26;20064;-67
2024/04/19 09:05:34;;;;;;;7.43;4.82;;;17.00;60.50;;;;;;5298926;26;20007;-67
2024/04/19 09:08:00;;;;;;;5.97;4.77;;;17.90;64.10;;;;;;5302789;26;20449;-67
2024/04/19 09:10:26;;;;;;;6.10;5.05;;;18.10;61.30;;;;;;5293879;27;20367;-67
2024/04/19 09:12:52;;;;;;;9.50;5.63;;;18.00;61.10;;;;;;5298207;26;20002;-67
2024/04/19 09:15:19;;;;;;;6.70;4.90;;;18.00;61.10;;;;;;5329554;26;20241;-67
2024/04/19 09:17:49;;;;;;;6.20;4.85;;;17.80;61.20;;;;;;5306752;26;19998;-67
2024/04/19 09:20:14;;;;;;;7.07;4.47;;;17.10;60.90;;;;;;5285980;27;20441;-67
2024/04/19 09:22:40;;;;;;;6.57;4.65;;;17.40;61.40;;;;;;5295009;27;20013;-65
2024/04/19 09:25:06;;;;;;;6.23;4.70;;;17.10;63.30;;;;;;5288113;26;19998;-65
2024/04/19 09:27:33;;;;;;;7.43;5.32;;;17.00;60.20;;;;;;5327330;26;20008;-67
2024/04/19 09:29:59;;;;;;;6.15;4.25;;;16.70;60.80;;;;;;5302151;27;20080;-67
2024/04/19 09:32:25;;;;;;;5.68;4.20;;;16.00;62.00;;;;;;5302910;26;20017;-67
2024/04/19 09:34:51;;;;;;;;;;;15.60;63.80;;;;;;5297126;26;20573;-67
2024/04/19 09:37:17;;;;;;;6.18;4.05;;;15.20;61.80;;;;;;5286817;26;19932;-67
2024/04/19 09:39:43;;;;;;;11.77;4.80;;;15.50;65.90;;;;;;5302333;26;20014;-66
2024/04/19 09:42:09;;;;;;;5.72;3.95;;;16.00;63.40;;;;;;5295774;26;20026;-67
2024/04/19 09:44:36;;;;;;;6.07;4.13;;;15.60;65.20;;;;;;5299539;26;20444;-68
2024/04/19 09:47:04;;;;;;;7.22;4.90;;;16.20;64.60;;;;;;5301012;27;20017;-67
2024/04/19 09:49:31;;;;;;;6.07;5.10;;;16.70;59.50;;;;;;5298575;27;20017;-67
2024/04/19 09:51:58;;;;;;;5.55;4.63;;;16.20;63.30;;;;;;5302967;27;20010;-66
2024/04/19 09:54:33;;;;;;;5.60;4.72;;;16.00;62.10;;;;;;5330865;26;20339;-67
2024/04/19 09:57:00;;;;;;;6.30;4.22;;;15.40;63.30;;;;;;5285407;26;20474;-67
2024/04/19 09:59:29;;;;;;;9.13;4.30;;;15.00;65.80;;;;;;5297300;27;20984;-68
2024/04/19 10:01:56;;;;;;;5.75;4.28;;;14.60;65.70;;;;;;5302492;26;20012;-67
2024/04/19 10:04:22;;;;;;;;;;;14.30;68.50;;;;;;5293038;26;20441;-67
2024/04/19 10:06:48;;;;;;;6.97;4.82;;;14.90;66.10;;;;;;5292621;27;19932;-67
2024/04/19 10:09:20;;;;;;;6.95;3.85;;;15.40;64.70;;;;;;5292708;27;19998;-67
2024/04/19 10:11:48;;;;;;;6.18;4.22;;;15.30;62.90;;;;;;5289742;27;20002;-67
2024/04/19 10:14:14;;;;;;;6.35;4.88;;;14.50;65.40;;;;;;5289717;26;20009;-68
2024/04/19 10:16:40;;;;;;;7.43;5.10;;;15.30;64.40;;;;;;5297522;26;19994;-66
2024/04/19 10:19:06;;;;;;;6.15;4.53;;;15.50;63.70;;;;;;5284085;26;20345;-67
2024/04/19 10:21:41;;;;;;;7.30;5.00;;;15.80;65.50;;;;;;5297691;26;20021;-67
2024/04/19 10:24:14;;;;;;;7.18;4.82;;;15.80;66.10;;;;;;5304092;26;20469;-67
2024/04/19 10:26:40;;;;;;;6.00;4.57;;;15.40;63.20;;;;;;5302832;27;20076;-67
2024/04/19 10:29:05;;;;;;;5.63;4.80;;;14.60;64.60;;;;;;5292863;26;19998;-68
2024/04/19 10:31:34;;;;;;;5.03;4.15;;;14.50;63.70;;;;;;5300427;27;20006;-67
2024/04/19 10:34:00;;;;;;;4.53;3.97;;;14.10;66.30;;;;;;5301655;26;20012;-67
2024/04/19 10:36:32;;;;;;;5.70;4.47;;;14.30;66.10;;;;;;5300466;26;20002;-66
2024/04/19 10:38:58;;;;;;;7.28;4.68;;;14.30;66.40;;;;;;5285880;27;20046;-67
2024/04/19 10:41:24;;;;;;;6.03;4.22;;;14.70;68.20;;;;;;5299958;26;20039;-68
2024/04/19 10:43:52;;;;;;;6.57;5.00;;;14.90;68.60;;;;;;5304555;26;20010;-67
2024/04/19 10:46:18;;;;;;;6.35;4.50;;;14.90;64.40;;;;;;5308048;26;20075;-68
2024/04/19 10:48:45;;;;;;;6.57;3.95;;;15.30;62.70;;;;;;5293866;27;20002;-68
2024/04/19 10:51:13;;;;;;;7.97;4.90;;;15.60;64.20;;;;;;5294479;27;20340;-68
2024/04/19 10:53:48;;;;;;;6.03;4.25;;;15.50;61.60;;;;;;5292501;26;20079;-68
2024/04/19 10:56:13;;;;;;;5.88;4.03;;;15.10;60.30;;;;;;5288626;26;20002;-68
2024/04/19 10:58:39;;;;;;;6.03;4.33;;;15.30;63.50;;;;;;5282004;26;20003;-68
2024/04/19 11:01:04;;;;;;;4.73;4.00;;;15.00;64.50;;;;;;5296980;27;20440;-68
2024/04/19 11:03:30;;;;;;;5.63;4.30;;;15.10;64.30;;;;;;5301798;26;20021;-68
2024/04/19 11:05:57;;;;;;;6.22;4.80;;;15.00;62.60;;;;;;5327689;26;20002;-68
2024/04/19 11:08:24;;;;;;;6.22;3.95;;;15.30;64.20;;;;;;5301122;27;20014;-68
2024/04/19 11:10:50;;;;;;;4.32;3.80;;;15.30;62.10;;;;;;5300064;26;20006;-68
2024/04/19 11:13:16;;;;;;;4.45;3.80;;;15.40;64.90;;;;;;5293694;27;19998;-68
2024/04/19 11:15:42;;;;;;;5.65;4.60;;;15.10;61.20;;;;;;5308329;27;20033;-69
2024/04/19 11:18:09;;;;;;;5.03;4.03;;;14.80;62.70;;;;;;5292391;26;20526;-69
2024/04/19 11:20:35;;;;;;;7.05;4.18;;;14.50;62.00;;;;;;5300902;26;20006;-68
2024/04/19 11:23:02;;;;;;;;;;;15.00;64.70;;;;;;5294966;26;20021;-69
2024/04/19 11:25:29;;;;;;;4.97;3.95;;;15.60;62.60;;;;;;5304963;26;19975;-69
2024/04/19 11:27:55;;;;;;;5.00;3.70;;;16.00;63.80;;;;;;5302243;26;20025;-69
2024/04/19 11:30:24;;;;;;;3.85;3.28;;;16.20;61.00;;;;;;5306497;26;20035;-69
2024/04/19 11:32:53;;;;;;;5.18;3.40;;;16.60;60.40;;;;;;5332320;26;20454;-69
2024/04/19 11:35:22;;;;;;;4.97;3.30;;;16.30;60.70;;;;;;5291415;27;20001;-69
2024/04/19 11:37:49;;;;;;;4.57;3.42;;;16.80;62.40;;;;;;5295713;26;20008;-69
2024/04/19 11:40:18;;;;;;;;;;;17.00;61.70;;;;;;5285649;27;20014;-69
2024/04/19 11:42:44;;;;;;;5.10;2.92;;;17.20;61.20;;;;;;5293626;27;19931;-68
2024/04/19 11:45:11;;;;;;;5.73;3.00;;;16.80;62.00;;;;;;5298862;26;20795;-68
2024/04/19 11:47:37;;;;;;;3.83;2.83;;;15.50;58.80;;;;;;5304473;27;20437;-68
2024/04/19 11:50:03;;;;;;;4.97;2.83;;;15.20;61.10;;;;;;5299007;26;20050;-69
2024/04/19 11:52:28;;;;;;;3.27;2.67;;;15.70;63.30;;;;;;5302698;26;20005;-69
2024/04/19 11:54:54;;;;;;;4.77;3.07;;;15.70;60.80;;;;;;5286530;26;20266;-68
2024/04/19 11:57:20;;;;;;;5.83;3.30;;;14.80;58.70;;;;;;5329829;26;20017;-68
2024/04/19 11:59:45;;;;;;;3.87;3.10;;;15.00;65.70;;;;;;5303079;26;20501;-68
2024/04/19 12:02:11;;;;;;;5.40;3.07;;;15.30;68.50;;;;;;5303242;27;20976;-68
2024/04/19 12:04:36;;;;;;;3.50;2.67;;;15.80;62.50;;;;;;5292221;26;20080;-68
2024/04/19 12:07:03;;;;;;;3.97;2.37;;;15.90;61.70;;;;;;5293263;26;19998;-68
2024/04/19 12:09:28;;;;;;;5.25;2.88;;;16.00;61.40;;;;;;5294640;27;19998;-68
2024/04/19 12:11:54;;;;;;;6.43;2.53;;;16.40;65.90;;;;;;5294059;26;20006;-68
2024/04/19 12:14:19;;;;;;;6.27;2.77;;;16.60;60.20;;;;;;5284613;26;20002;-68
2024/04/19 12:16:45;;;;;;;3.73;2.40;;;16.30;59.50;;;;;;5301136;27;19997;-68
2024/04/19 12:19:11;;;;;;;4.63;2.87;;;15.90;59.40;;;;;;5297719;26;20021;-68
2024/04/19 12:21:37;;;;;;;4.80;3.05;;;15.80;59.90;;;;;;5289796;26;20013;-68
2024/04/19 12:24:03;;;;;;;6.57;2.77;;;15.90;61.20;;;;;;5292036;26;20006;-68
2024/04/19 12:26:29;;;;;;;4.03;3.00;;;15.80;61.40;;;;;;5322318;26;20017;-67
2024/04/19 12:28:54;;;;;;;4.57;2.60;;;15.40;61.60;;;;;;5287450;27;19998;-67
2024/04/19 12:31:21;;;;;;;4.73;2.70;;;15.30;60.20;;;;;;5323652;26;20012;-68
2024/04/19 12:33:46;;;;;;;;;;;15.60;62.10;;;;;;5291704;26;20016;-68
2024/04/19 12:36:12;;;;;;;3.88;2.60;;;15.80;63.00;;;;;;5296097;27;20599;-68
2024/04/19 12:38:38;;;;;;;3.23;2.60;;;15.80;59.70;;;;;;5289733;26;20042;-68
2024/04/19 12:41:03;;;;;;;5.67;2.80;;;15.90;60.50;;;;;;5302774;27;20002;-68
2024/04/19 12:43:29;;;;;;;6.63;2.60;;;16.10;60.50;;;;;;5298612;26;20363;-70
2024/04/19 12:45:55;;;;;;;4.03;2.80;;;16.20;60.00;;;;;;5319467;26;20002;-67
2024/04/19 12:48:22;;;;;;;9.93;4.22;;;16.30;63.20;;;;;;5299413;27;20264;-68
2024/04/19 12:50:47;;;;;;;5.05;3.58;;;16.40;62.30;;;;;;5300171;26;19998;-68